createdAt,value
2018-02-09T00:02:14.813Z,1.60
2018-02-09T00:04:43.038Z,1.60
2018-02-09T00:07:10.509Z,1.60
2018-02-09T00:09:37.958Z,1.60
2018-02-09T00:12:05.472Z,1.50
2018-02-09T00:14:32.917Z,1.60
2018-02-09T00:17:00.363Z,1.50
2018-02-09T00:19:27.820Z,1.50
2018-02-09T00:21:55.270Z,1.50
2018-02-09T00:24:22.731Z,1.50
2018-02-09T00:26:50.182Z,1.50
2018-02-09T00:29:17.655Z,1.40
2018-02-09T00:31:45.117Z,1.40
2018-02-09T00:34:12.587Z,1.40
2018-02-09T00:36:40.037Z,1.40
2018-02-09T00:39:07.498Z,1.30
2018-02-09T00:41:34.933Z,1.30
2018-02-09T00:44:03.178Z,1.30
2018-02-09T00:46:30.634Z,1.20
2018-02-09T00:48:58.084Z,1.30
2018-02-09T00:51:25.533Z,1.30
2018-02-09T00:53:53.005Z,1.30
2018-02-09T00:56:20.530Z,1.20
2018-02-09T00:58:48.746Z,1.20
2018-02-09T01:01:16.213Z,1.20
2018-02-09T01:03:43.670Z,1.20
2018-02-09T01:06:11.127Z,1.20
2018-02-09T01:08:38.589Z,1.20
2018-02-09T01:11:06.826Z,1.20
2018-02-09T01:13:34.291Z,1.20
2018-02-09T01:16:01.740Z,1.20
2018-02-09T01:18:29.182Z,1.20
2018-02-09T01:20:56.633Z,1.20
2018-02-09T01:23:24.107Z,1.20
2018-02-09T01:25:51.572Z,1.10
2018-02-09T01:28:19.032Z,1.10
2018-02-09T01:30:46.493Z,1.10
2018-02-09T01:33:13.956Z,1.10
2018-02-09T01:35:41.431Z,1.10
2018-02-09T01:38:08.884Z,1.10
2018-02-09T01:40:36.337Z,1.10
2018-02-09T01:43:03.799Z,1.10
2018-02-09T01:45:31.260Z,1.00
2018-02-09T01:47:58.699Z,1.00
2018-02-09T01:50:26.170Z,1.00
2018-02-09T01:52:53.630Z,1.00
2018-02-09T01:55:21.099Z,0.90
2018-02-09T01:57:48.555Z,0.90
2018-02-09T02:00:16.024Z,1.00
2018-02-09T02:02:43.485Z,0.90
2018-02-09T02:05:10.929Z,0.90
2018-02-09T02:07:38.387Z,0.90
2018-02-09T02:10:06.606Z,0.90
2018-02-09T02:12:34.050Z,0.90
2018-02-09T02:15:01.524Z,0.90
2018-02-09T02:17:28.979Z,0.80
2018-02-09T02:19:56.427Z,0.80
2018-02-09T02:22:23.882Z,0.80
2018-02-09T02:24:52.099Z,0.80
2018-02-09T02:27:19.571Z,0.80
2018-02-09T02:29:47.016Z,0.80
2018-02-09T02:32:14.473Z,0.80
2018-02-09T02:34:41.949Z,0.80
2018-02-09T02:37:09.395Z,0.80
2018-02-09T02:39:36.855Z,0.80
2018-02-09T02:42:04.315Z,0.70
2018-02-09T02:44:31.765Z,0.70
2018-02-09T02:46:59.227Z,0.70
2018-02-09T02:49:26.696Z,0.70
2018-02-09T02:51:54.172Z,0.70
2018-02-09T02:54:21.616Z,0.70
2018-02-09T02:56:49.103Z,0.80
2018-02-09T02:59:16.545Z,0.70
2018-02-09T03:01:44.000Z,0.70
2018-02-09T03:04:12.240Z,0.70
2018-02-09T03:06:39.696Z,0.60
2018-02-09T03:09:07.149Z,0.70
2018-02-09T03:11:34.610Z,0.70
2018-02-09T03:14:02.069Z,0.70
2018-02-09T03:16:29.513Z,0.60
2018-02-09T03:18:56.956Z,0.70
2018-02-09T03:21:25.186Z,0.70
2018-02-09T03:23:52.643Z,0.70
2018-02-09T03:26:20.089Z,0.70
2018-02-09T03:28:47.546Z,0.60
2018-02-09T03:31:15.017Z,0.60
2018-02-09T03:33:42.475Z,0.50
2018-02-09T03:36:09.920Z,0.60
2018-02-09T03:38:37.383Z,0.60
2018-02-09T03:41:04.839Z,0.50
2018-02-09T03:43:33.073Z,0.50
2018-02-09T03:46:00.524Z,0.50
2018-02-09T03:48:27.981Z,0.50
2018-02-09T03:50:55.437Z,0.50
2018-02-09T03:53:22.911Z,0.40
2018-02-09T03:55:50.367Z,0.40
2018-02-09T03:58:17.814Z,0.40
2018-02-09T04:00:45.266Z,0.40
2018-02-09T04:03:12.780Z,0.40
2018-02-09T04:05:40.246Z,0.40
2018-02-09T04:08:07.742Z,0.40
2018-02-09T04:10:35.953Z,0.40
2018-02-09T04:13:03.411Z,0.40
2018-02-09T04:15:30.874Z,0.40
2018-02-09T04:17:58.331Z,0.40
2018-02-09T04:20:25.793Z,0.40
2018-02-09T04:22:53.252Z,0.40
2018-02-09T04:25:20.697Z,0.40
2018-02-09T04:27:48.937Z,0.40
2018-02-09T04:30:16.375Z,0.40
2018-02-09T04:32:43.827Z,0.40
2018-02-09T04:35:11.292Z,0.40
2018-02-09T04:37:38.758Z,0.50
2018-02-09T04:40:06.215Z,0.40
2018-02-09T04:42:33.670Z,0.40
2018-02-09T04:45:01.122Z,0.40
2018-02-09T04:47:28.574Z,0.40
2018-02-09T04:49:56.800Z,0.40
2018-02-09T04:52:24.253Z,0.40
2018-02-09T04:54:51.709Z,0.30
2018-02-09T04:57:19.167Z,0.40
2018-02-09T04:59:46.648Z,0.30
2018-02-09T05:02:14.114Z,0.30
2018-02-09T05:04:41.577Z,0.30
2018-02-09T05:07:09.046Z,0.40
2018-02-09T05:09:36.508Z,0.30
2018-02-09T05:12:03.961Z,0.30
2018-02-09T05:14:31.413Z,0.30
2018-02-09T05:16:58.876Z,0.30
2018-02-09T05:19:26.335Z,0.30
2018-02-09T05:21:53.799Z,0.30
2018-02-09T05:24:21.257Z,0.30
2018-02-09T05:26:48.735Z,0.30
2018-02-09T05:29:16.205Z,0.30
2018-02-09T05:31:43.688Z,0.20
2018-02-09T05:34:11.160Z,0.20
2018-02-09T05:36:38.625Z,0.20
2018-02-09T05:39:06.062Z,0.20
2018-02-09T05:41:33.546Z,0.20
2018-02-09T05:44:00.998Z,0.20
2018-02-09T05:46:28.464Z,0.20
2018-02-09T05:48:55.912Z,0.20
2018-02-09T05:51:23.390Z,0.20
2018-02-09T05:53:50.841Z,0.20
2018-02-09T05:56:18.293Z,0.10
2018-02-09T05:58:45.769Z,0.10
2018-02-09T06:01:13.221Z,0.20
2018-02-09T06:03:40.679Z,0.10
2018-02-09T06:06:08.125Z,0.10
2018-02-09T06:08:35.862Z,0.10
2018-02-09T06:11:03.303Z,0.10
2018-02-09T06:13:30.768Z,0.10
2018-02-09T06:15:58.221Z,0.00
2018-02-09T06:18:26.175Z,0.10
2018-02-09T06:20:53.619Z,0.10
2018-02-09T06:23:21.075Z,0.30
2018-02-09T06:25:48.522Z,0.10
2018-02-09T06:28:16.754Z,0.10
2018-02-09T06:30:44.205Z,0.00
2018-02-09T06:33:11.680Z,0.00
2018-02-09T06:35:39.150Z,0.00
2018-02-09T06:38:06.621Z,0.00
2018-02-09T06:40:34.069Z,0.00
2018-02-09T06:43:01.530Z,0.00
2018-02-09T06:45:28.982Z,0.00
2018-02-09T06:47:56.453Z,0.00
2018-02-09T06:50:23.910Z,0.00
2018-02-09T06:52:51.388Z,0.00
2018-02-09T06:55:18.853Z,-0.10
2018-02-09T06:57:54.891Z,0.10
2018-02-09T07:00:22.364Z,0.00
2018-02-09T07:02:49.818Z,-0.10
2018-02-09T07:05:17.279Z,-0.10
2018-02-09T07:07:44.746Z,-0.10
2018-02-09T07:10:12.198Z,0.00
2018-02-09T07:12:39.665Z,-0.10
2018-02-09T07:15:07.158Z,-0.10
2018-02-09T07:17:34.625Z,-0.10
2018-02-09T07:20:02.084Z,-0.10
2018-02-09T07:22:29.551Z,-0.10
2018-02-09T07:24:57.014Z,-0.10
2018-02-09T07:27:24.487Z,-0.10
2018-02-09T07:29:51.938Z,-0.10
2018-02-09T07:32:19.399Z,-0.10
2018-02-09T07:34:46.867Z,-0.10
2018-02-09T07:37:14.323Z,0.00
2018-02-09T07:39:41.772Z,0.00
2018-02-09T07:42:09.242Z,0.00
2018-02-09T07:44:36.703Z,0.00
2018-02-09T07:47:04.162Z,0.00
2018-02-09T07:49:31.621Z,0.00
2018-02-09T07:51:59.087Z,0.00
2018-02-09T07:54:26.545Z,0.10
2018-02-09T07:56:53.989Z,0.10
2018-02-09T07:59:21.464Z,0.10
2018-02-09T08:01:48.922Z,0.10
2018-02-09T08:04:16.370Z,0.20
2018-02-09T08:06:43.832Z,0.20
2018-02-09T08:09:11.292Z,0.20
2018-02-09T08:11:38.753Z,0.30
2018-02-09T08:14:06.174Z,0.30
2018-02-09T08:16:34.395Z,0.30
2018-02-09T08:19:01.849Z,0.30
2018-02-09T08:21:29.329Z,0.30
2018-02-09T08:23:56.772Z,0.30
2018-02-09T08:26:24.217Z,0.30
2018-02-09T08:28:52.445Z,0.30
2018-02-09T08:31:20.841Z,0.30
2018-02-09T08:33:48.914Z,0.30
2018-02-09T08:36:16.402Z,0.40
2018-02-09T08:38:43.854Z,0.40
2018-02-09T08:41:11.311Z,0.40
2018-02-09T08:43:38.769Z,0.40
2018-02-09T08:46:06.223Z,0.40
2018-02-09T08:48:33.665Z,0.40
2018-02-09T08:51:01.130Z,0.50
2018-02-09T08:53:28.591Z,0.50
2018-02-09T08:55:56.054Z,0.50
2018-02-09T08:58:23.502Z,0.50
2018-02-09T09:00:50.962Z,0.50
2018-02-09T09:03:18.430Z,0.50
2018-02-09T09:05:45.879Z,0.50
2018-02-09T09:08:14.123Z,0.60
2018-02-09T09:10:41.559Z,0.60
2018-02-09T09:13:09.009Z,0.60
2018-02-09T09:15:36.463Z,0.60
2018-02-09T09:18:03.920Z,0.60
2018-02-09T09:20:31.376Z,0.60
2018-02-09T09:22:58.857Z,0.60
2018-02-09T09:25:26.311Z,0.70
2018-02-09T09:27:53.764Z,0.70
2018-02-09T09:30:22.009Z,0.80
2018-02-09T09:32:49.466Z,0.70
2018-02-09T09:35:16.926Z,0.80
2018-02-09T09:37:44.395Z,0.80
2018-02-09T09:40:11.860Z,0.80
2018-02-09T09:42:39.307Z,0.90
2018-02-09T09:45:06.787Z,0.90
2018-02-09T09:47:34.251Z,1.00
2018-02-09T09:50:01.699Z,1.10
2018-02-09T09:52:29.153Z,1.20
2018-02-09T09:54:56.620Z,1.10
2018-02-09T09:57:24.079Z,1.30
2018-02-09T09:59:51.529Z,1.40
2018-02-09T10:02:30.771Z,1.40
2018-02-09T10:04:58.216Z,1.40
2018-02-09T10:07:25.714Z,1.40
2018-02-09T10:09:53.134Z,1.40
2018-02-09T10:12:20.588Z,1.40
2018-02-09T10:14:48.031Z,1.40
2018-02-09T10:17:19.267Z,1.40
2018-02-09T10:19:46.731Z,1.40
2018-02-09T10:22:14.230Z,1.40
2018-02-09T10:24:41.723Z,1.40
2018-02-09T10:27:09.191Z,1.40
2018-02-09T10:29:36.634Z,1.40
2018-02-09T10:32:04.089Z,1.50
2018-02-09T10:34:31.557Z,1.40
2018-02-09T10:36:59.011Z,1.60
2018-02-09T10:39:26.521Z,1.70
2018-02-09T10:41:53.965Z,1.80
2018-02-09T10:44:21.415Z,1.80
2018-02-09T10:46:48.874Z,1.70
2018-02-09T10:49:16.341Z,1.70
2018-02-09T10:51:43.802Z,1.70
2018-02-09T10:54:11.278Z,1.60
2018-02-09T10:56:38.767Z,1.70
2018-02-09T10:59:06.180Z,1.70
2018-02-09T11:01:36.539Z,1.70
2018-02-09T11:04:03.992Z,1.70
2018-02-09T11:06:31.455Z,1.80
2018-02-09T11:08:58.915Z,1.80
2018-02-09T11:11:27.092Z,1.80
2018-02-09T11:13:54.559Z,1.90
2018-02-09T11:16:22.004Z,1.80
2018-02-09T11:18:49.475Z,1.80
2018-02-09T11:21:16.924Z,1.80
2018-02-09T11:23:44.386Z,1.80
2018-02-09T11:26:11.818Z,1.80
2018-02-09T11:28:40.881Z,1.90
2018-02-09T11:31:08.326Z,1.90
2018-02-09T11:33:35.796Z,1.90
2018-02-09T11:36:03.254Z,1.80
2018-02-09T11:38:30.711Z,1.90
2018-02-09T11:40:58.162Z,1.80
2018-02-09T11:43:25.617Z,1.90
2018-02-09T11:45:53.096Z,1.80
2018-02-09T11:48:20.578Z,1.90
2018-02-09T11:50:48.000Z,1.90
2018-02-09T11:53:15.474Z,2.00
2018-02-09T11:55:42.921Z,2.10
2018-02-09T11:58:10.376Z,2.10
2018-02-09T12:00:38.604Z,2.10
2018-02-09T12:03:06.057Z,2.10
2018-02-09T12:05:33.493Z,2.10
2018-02-09T12:08:00.960Z,2.10
2018-02-09T12:10:28.436Z,2.10
2018-02-09T12:12:55.882Z,2.10
2018-02-09T12:15:23.323Z,2.10
2018-02-09T12:17:51.569Z,2.20
2018-02-09T12:20:19.776Z,2.20
2018-02-09T12:22:47.997Z,2.20
2018-02-09T12:25:15.445Z,2.20
2018-02-09T12:27:42.947Z,2.20
2018-02-09T12:30:10.409Z,2.20
2018-02-09T12:32:37.916Z,2.20
2018-02-09T12:35:05.344Z,2.20
2018-02-09T12:37:32.819Z,2.20
2018-02-09T12:40:00.276Z,2.20
2018-02-09T12:42:27.771Z,2.20
2018-02-09T12:44:56.290Z,2.10
2018-02-09T12:47:23.543Z,2.10
2018-02-09T12:49:51.035Z,2.10
2018-02-09T12:52:18.505Z,2.20
2018-02-09T12:54:45.957Z,2.10
2018-02-09T12:57:13.423Z,2.10
2018-02-09T12:59:40.913Z,2.00
2018-02-09T13:02:08.395Z,2.00
2018-02-09T13:04:36.640Z,1.90
2018-02-09T13:07:04.085Z,1.90
2018-02-09T13:09:31.563Z,1.90
2018-02-09T13:11:59.008Z,1.90
2018-02-09T13:14:38.420Z,1.90
2018-02-09T13:17:05.889Z,2.00
2018-02-09T13:19:33.351Z,2.00
2018-02-09T13:22:00.811Z,2.00
2018-02-09T13:24:28.286Z,2.00
2018-02-09T13:26:55.752Z,2.00
2018-02-09T13:29:23.190Z,2.00
2018-02-09T13:31:50.652Z,2.10
2018-02-09T13:34:18.112Z,2.00
2018-02-09T13:39:55.738Z,2.00
2018-02-09T13:42:23.194Z,2.00
2018-02-09T13:44:50.638Z,2.00
2018-02-09T13:47:18.087Z,1.90
2018-02-09T13:49:46.311Z,1.90
2018-02-09T13:52:13.769Z,1.90
2018-02-09T13:54:41.221Z,1.90
2018-02-09T13:57:08.662Z,1.90
2018-02-09T13:59:36.897Z,1.90
2018-02-09T14:02:04.376Z,1.90
2018-02-09T14:04:31.839Z,1.90
2018-02-09T14:06:59.282Z,1.90
2018-02-09T14:09:26.738Z,1.90
2018-02-09T14:11:54.209Z,1.90
2018-02-09T14:14:21.654Z,1.90
2018-02-09T14:16:49.129Z,1.90
2018-02-09T14:19:16.565Z,1.90
2018-02-09T14:21:44.041Z,1.90
2018-02-09T14:24:11.515Z,1.90
2018-02-09T14:26:38.977Z,1.80
2018-02-09T14:29:06.483Z,1.80
2018-02-09T14:31:34.714Z,1.80
2018-02-09T14:34:02.159Z,1.80
2018-02-09T14:36:29.638Z,1.80
2018-02-09T14:38:57.088Z,1.70
2018-02-09T14:41:24.561Z,1.70
2018-02-09T14:43:52.022Z,1.70
2018-02-09T14:46:19.471Z,1.70
2018-02-09T14:48:46.939Z,1.70
2018-02-09T14:51:14.396Z,1.70
2018-02-09T14:53:41.864Z,1.60
2018-02-09T14:56:09.323Z,1.60
2018-02-09T14:58:36.783Z,1.60
2018-02-09T15:01:04.264Z,1.60
2018-02-09T15:06:07.382Z,1.50
2018-02-09T15:08:34.864Z,1.50
2018-02-09T15:11:02.304Z,1.50
2018-02-09T15:13:29.763Z,1.50
2018-02-09T15:15:57.235Z,1.50
2018-02-09T15:18:24.695Z,1.50
2018-02-09T15:20:52.138Z,1.60
2018-02-09T15:23:19.627Z,1.50
2018-02-09T15:25:47.086Z,1.50
2018-02-09T15:28:14.528Z,1.50
2018-02-09T15:30:41.992Z,1.50
2018-02-09T15:33:09.450Z,1.40
2018-02-09T15:35:36.909Z,1.40
2018-02-09T15:38:04.350Z,1.30
2018-02-09T15:40:32.574Z,1.40
2018-02-09T15:43:00.024Z,1.30
2018-02-09T15:45:27.460Z,1.30
2018-02-09T15:47:55.684Z,1.20
2018-02-09T15:50:23.120Z,1.30
2018-02-09T15:52:50.562Z,1.30
2018-02-09T15:55:18.773Z,1.20
2018-02-09T15:57:46.234Z,1.20
2018-02-09T16:00:13.690Z,1.20
2018-02-09T16:02:41.220Z,1.20
2018-02-09T16:05:08.637Z,1.10
2018-02-09T16:07:36.100Z,1.20
2018-02-09T16:10:03.564Z,1.10
2018-02-09T16:12:31.045Z,1.10
2018-02-09T16:14:58.477Z,1.10
2018-02-09T16:17:25.930Z,1.10
2018-02-09T16:19:53.397Z,1.10
2018-02-09T16:22:20.871Z,1.10
2018-02-09T16:24:48.316Z,1.10
2018-02-09T16:27:15.805Z,1.10
2018-02-09T16:29:43.271Z,1.20
2018-02-09T16:32:10.730Z,1.10
2018-02-09T16:34:38.211Z,1.00
2018-02-09T16:37:05.660Z,1.00
2018-02-09T16:39:33.120Z,1.00
2018-02-09T16:42:00.593Z,1.00
2018-02-09T16:44:28.061Z,1.00
2018-02-09T16:46:55.511Z,1.10
2018-02-09T16:49:22.959Z,1.00
2018-02-09T16:51:50.407Z,1.00
2018-02-09T16:54:17.852Z,1.00
2018-02-09T16:56:45.323Z,1.00
2018-02-09T16:59:12.795Z,0.90
2018-02-09T17:01:40.315Z,0.90
2018-02-09T17:04:07.804Z,0.90
2018-02-09T17:06:35.215Z,0.90
2018-02-09T17:09:02.669Z,0.90
2018-02-09T17:11:30.142Z,0.80
2018-02-09T17:13:57.612Z,0.90
2018-02-09T17:16:25.068Z,0.90
2018-02-09T17:18:52.531Z,1.00
2018-02-09T17:21:20.006Z,0.90
2018-02-09T17:23:47.458Z,0.80
2018-02-09T17:26:14.916Z,0.80
2018-02-09T17:28:42.377Z,0.80
2018-02-09T17:31:09.877Z,0.90
2018-02-09T17:33:38.117Z,0.80
2018-02-09T17:36:05.596Z,0.80
2018-02-09T17:38:33.060Z,0.80
2018-02-09T17:41:00.510Z,0.70
2018-02-09T17:43:27.984Z,0.80
2018-02-09T17:45:55.438Z,0.80
2018-02-09T17:48:22.903Z,0.80
2018-02-09T17:50:51.159Z,0.80
2018-02-09T17:53:18.664Z,1.00
2018-02-09T17:55:46.906Z,0.90
2018-02-09T17:58:14.361Z,0.90
2018-02-09T18:00:41.808Z,0.80
2018-02-09T18:03:09.266Z,0.80
2018-02-09T18:05:36.726Z,0.80
2018-02-09T18:08:05.799Z,0.80
2018-02-09T18:10:33.243Z,0.70
2018-02-09T18:13:00.698Z,0.80
2018-02-09T18:15:28.150Z,0.80
2018-02-09T18:17:56.395Z,0.80
2018-02-09T18:20:24.607Z,0.80
2018-02-09T18:22:52.064Z,0.80
2018-02-09T18:25:19.516Z,0.80
2018-02-09T18:27:46.985Z,0.70
2018-02-09T18:30:14.441Z,0.70
2018-02-09T18:32:41.921Z,0.70
2018-02-09T18:35:09.462Z,0.70
2018-02-09T18:37:36.929Z,0.70
2018-02-09T18:40:04.424Z,0.70
2018-02-09T18:42:32.806Z,0.70
2018-02-09T18:45:00.270Z,0.70
2018-02-09T18:47:27.737Z,0.70
2018-02-09T18:49:55.242Z,0.70
2018-02-09T18:52:23.491Z,0.70
2018-02-09T18:54:50.974Z,0.70
2018-02-09T18:57:18.426Z,0.70
2018-02-09T18:59:45.892Z,0.70
2018-02-09T19:02:13.358Z,0.70
2018-02-09T19:04:40.812Z,0.70
2018-02-09T19:07:08.330Z,0.60
2018-02-09T19:09:35.792Z,0.70
2018-02-09T19:12:03.255Z,0.70
2018-02-09T19:14:30.700Z,0.60
2018-02-09T19:16:58.183Z,0.70
2018-02-09T19:19:25.646Z,0.70
2018-02-09T19:21:53.116Z,0.70
2018-02-09T19:24:20.610Z,0.70
2018-02-09T19:26:48.116Z,0.70
2018-02-09T19:29:16.334Z,0.70
2018-02-09T19:31:43.803Z,0.70
2018-02-09T19:34:11.277Z,0.70
2018-02-09T19:36:38.726Z,0.70
2018-02-09T19:39:06.195Z,0.70
2018-02-09T19:41:33.671Z,0.70
2018-02-09T19:44:01.159Z,0.70
2018-02-09T19:46:29.375Z,0.70
2018-02-09T19:48:56.833Z,0.70
2018-02-09T19:51:24.319Z,0.70
2018-02-09T19:53:51.773Z,0.90
2018-02-09T19:56:19.234Z,0.80
2018-02-09T19:58:46.729Z,0.80
2018-02-09T20:01:14.208Z,0.80
2018-02-09T20:03:41.675Z,0.70
2018-02-09T20:06:09.905Z,0.80
2018-02-09T20:08:37.371Z,0.80
2018-02-09T20:11:04.857Z,0.80
2018-02-09T20:13:32.302Z,0.80
2018-02-09T20:15:59.764Z,0.80
2018-02-09T20:18:27.239Z,0.70
2018-02-09T20:20:54.714Z,0.80
2018-02-09T20:23:22.169Z,0.80
2018-02-09T20:25:49.631Z,0.80
2018-02-09T20:28:17.093Z,0.80
2018-02-09T20:30:44.562Z,0.80
2018-02-09T20:33:12.013Z,0.80
2018-02-09T20:35:39.475Z,0.80
2018-02-09T20:38:06.963Z,0.80
2018-02-09T20:40:34.420Z,0.80
2018-02-09T20:43:01.892Z,0.80
2018-02-09T20:45:29.342Z,0.70
2018-02-09T20:47:56.802Z,0.80
2018-02-09T20:50:24.245Z,0.80
2018-02-09T20:52:51.710Z,0.80
2018-02-09T20:55:19.147Z,0.80
2018-02-09T20:57:46.662Z,0.80
2018-02-09T21:00:14.115Z,0.80
2018-02-09T21:02:41.589Z,0.80
2018-02-09T21:05:09.066Z,0.80
2018-02-09T21:07:36.669Z,0.80
2018-02-09T21:10:04.143Z,0.80
2018-02-09T21:12:31.640Z,0.80
2018-02-09T21:14:59.075Z,0.80
2018-02-09T21:17:26.537Z,0.80
2018-02-09T21:19:54.018Z,0.80
2018-02-09T21:22:21.460Z,0.80
2018-02-09T21:24:48.938Z,0.80
2018-02-09T21:27:16.361Z,0.80
2018-02-09T21:29:43.825Z,0.70
2018-02-09T21:32:11.275Z,0.70
2018-02-09T21:34:38.745Z,0.80
2018-02-09T21:37:06.215Z,0.80
2018-02-09T21:39:33.681Z,0.80
2018-02-09T21:42:01.124Z,0.80
2018-02-09T21:44:29.343Z,0.90
2018-02-09T21:46:56.810Z,0.90
2018-02-09T21:49:24.286Z,0.80
2018-02-09T21:51:51.739Z,0.80
2018-02-09T21:54:19.200Z,0.80
2018-02-09T21:56:46.654Z,0.80
2018-02-09T21:59:14.112Z,0.80
2018-02-09T22:01:41.578Z,0.90
2018-02-09T22:04:09.026Z,0.80
2018-02-09T22:06:36.466Z,0.90
2018-02-09T22:09:04.704Z,0.80
2018-02-09T22:11:32.146Z,0.80
2018-02-09T22:13:59.618Z,0.90
2018-02-09T22:16:27.089Z,0.90
2018-02-09T22:18:54.553Z,0.90
2018-02-09T22:21:22.023Z,0.90
2018-02-09T22:23:49.481Z,0.90
2018-02-09T22:26:16.937Z,0.90
2018-02-09T22:28:44.390Z,0.90
2018-02-09T22:31:11.866Z,0.90
2018-02-09T22:33:39.323Z,0.90
2018-02-09T22:36:06.781Z,0.90
2018-02-09T22:38:34.234Z,0.90
2018-02-09T22:41:01.704Z,0.90
2018-02-09T22:43:29.171Z,0.90
2018-02-09T22:45:56.631Z,0.90
2018-02-09T22:48:24.088Z,0.90
2018-02-09T22:50:51.542Z,0.90
2018-02-09T22:53:18.989Z,0.90
2018-02-09T22:55:46.462Z,0.90
2018-02-09T22:58:13.924Z,0.90
2018-02-09T23:00:41.389Z,0.90
2018-02-09T23:03:08.831Z,0.90
2018-02-09T23:05:37.062Z,0.90
2018-02-09T23:08:04.524Z,0.90
2018-02-09T23:10:31.978Z,0.90
2018-02-09T23:12:59.439Z,0.90
2018-02-09T23:15:26.902Z,0.90
2018-02-09T23:17:54.368Z,0.90
2018-02-09T23:20:21.813Z,1.00
2018-02-09T23:22:49.260Z,0.90
2018-02-09T23:25:16.726Z,0.90
2018-02-09T23:27:44.185Z,0.90
2018-02-09T23:30:11.641Z,1.00
2018-02-09T23:32:39.116Z,1.00
2018-02-09T23:35:06.552Z,1.00
2018-02-09T23:37:34.792Z,1.00
2018-02-09T23:40:02.244Z,0.90
2018-02-09T23:42:29.719Z,1.00
2018-02-09T23:44:57.176Z,0.90
2018-02-09T23:47:24.644Z,1.00
2018-02-09T23:49:52.122Z,1.00
2018-02-09T23:52:19.582Z,1.00
2018-02-09T23:54:47.022Z,1.00
2018-02-09T23:57:14.480Z,1.00
2018-02-09T23:59:41.945Z,1.00
